To NAV CANADA Home Page Login to a new session Search on AWWS site Feedback and Comments Disclaimer Vers la page française équivalente Tips FAQ What's new on the site To the Forecasts and Observations / NOTAM section To "File a Flight Plan" website Publications and other links Update of the User's profile FIC Telephone Numbers My Weather Data Folder Route Weather Data Regional Weather Data Local Weather Data To the Forecasts and Observations / NOTAM section
Request Generated 08/28/2015 at 05:04:00 UTC . Weather information available at that time is displayed.

METAR/TAF

SARNIA/SARNIA (CHRIS HADFIELD)/ON    (show WxCam)

METAR CYZR 280500Z AUTO 00000KT 9SM CLR 12/11 A3018 RMK SLP220=
METAR CYZR 280400Z AUTO 14004KT 9SM CLR 12/11 A3018 RMK SLP222=
METAR CYZR 280300Z AUTO 15003KT 9SM CLR 14/12 A3019 RMK SLP225=

*** REMARK        : Forecast period has ended; this was the last TAF issued
*** REMARQUE : La période de prévision est échue; ceci était le dernier TAF qui a été émis
TAF AMD CYZR 280038Z 2800/2802 VRB03KT P6SM OVC030 TEMPO 2800/2802
5SM BR
RMK FCST BASED ON AUTO OBS. NXT FCST WILL BE ISSUED AT 281145Z=
Your time UTC time
Weather data provided by Environment Canada and NAV CANADA